Marquette, MI

12:22 PM EDT on March 29, 2015 (GMT -0400)
Sawyer International | | Change Station
CLOSE
Current Station
Airport
Location: Gwinn,
Elevation: 1220 ft
Nearby Weather Stations

Elev 1220 ft 46.34 °N, 87.40 °W | Updated 37 minutes ago

Snow
Snow
30 °F
Feels Like 18 °F
N
20
Wind Variable Wind from SSW
Gusts 33 mph

Today
High -- | Low -- °F
--% Chance of Precip.
Yesterday
High -- | Low -- °F
Precip. -- in
7:35 AM 8:14 PM
Waxing Gibbous, 72% visible
Pressure 29.60 in
Visibility 0.8 miles
Clouds Mostly Cloudy 500 ft
Overcast 1200 ft
Windchill 18 °F
Dew Point 25 °F
Humidity 80%
Rainfall 0.00 in
Snow Depth Not available.
UV 2 out of 12
Pollen 2.30 out of 12
Air Quality Not available.
Flu Activity Not available.
METAR KSAW 291545Z 20017G29KT 3/4SM -SN BKN005 OVC012 M01/M04 A2960

More Conditions Fewer Conditions

Pressure 29.60 in
Visibility 0.8 miles
Clouds Mostly Cloudy 500 ft
Overcast 1200 ft
Windchill 18 °F
Dew Point 25 °F
Humidity 80%
Rainfall 0.00 in
Snow Depth Not available.
UV 2 out of 12
Pollen 2.30 out of 12
Air Quality Not available.
Flu Activity Not available.
METAR KSAW 291545Z 20017G29KT 3/4SM -SN BKN005 OVC012 M01/M04 A2960

More Conditions Fewer Conditions

10-Day Weather Forecast

Almanac

Astronomy

Mar. 29, 2015 Rise Set
Actual Time
Civil Twilight
Nautical Twilight
Astronomical Twilight
Moon
Length of Visible Light
Length of Day
Tomorrow will be .
, % of the Moon is Illuminated

Today's Extremes

State Highs State Lows

Community

WunderPhotos

Upload Photos

1,809,284 photos uploaded!

WunderBlogs® & News

Nearby

Air Quality

  Air Quality AQ Index Pollutant
Not available.

Snow Depth

Station Depth Elevation

Earthquake Activity

City Distance Mag. Time & Date
Minimum magnitude displayed is 2.5.

Coastal Water Temperatures

Place Temperature

Stations

Nearby Weather Stations

Station Location Temp. Windchill Dew Point Humidity Wind Precip. Elev Updated Type